Terminal Aerodrome Forecast
Issued by NWS

Home | Current Version | Previous Version | Text Only | Print | Product List | Glossary On
Versions: 1 2 3 4 5 6 7 8 9 10 11 12 13 14 15 16 17 18 19 20 21 22
000
FTAK31 PAJN 011907 AAA
TAFAPG
TAF AMD
PAPG 011907Z 0119/0218 00000KT 4SM BR VCFG SCT003 BKN010 OVC026
      TEMPO 0119/0121 1SM BR OVC002
     FM012100 06004KT P6SM VCSH FEW015 SCT025 OVC050
     FM020400 VRB02KT P6SM FEW003 SCT050 BKN100
     FM021000 00000KT 4SM BR VCFG FEW003 BKN050
     FM021300 00000KT 1/2SM FG VV002=

USA.gov is the U.S. government's official web portal to all federal, state and local government web resources and services.